• Join FlightAware (Why Join?)
  • Login
  • US Flag 
12:46AM EDT


 

Airport Tracker/Info


-or-


 

Live Flight TrackerFlight Track Log ✈ CSN3578 ✈ 16-Jul-2014 ✈ ZSFZ / FOC - ZGSZ / SZX

Flight Track Log - Related Links

Times and Time Zones

All times are in EDT time to prevent confusion due to time zone crossing. See the CSN3578 flight status page for this flight to view local times or setup timezone preferences in your user account.

Time Position Orientation Groundspeed Altitude Reporting Facility
EDT Latitude Longitude Course Direction KTS MPH feet Rate Location/Type
06:35AM 25.8829 119.5647 240° Southwest  Level Estimated
06:36AM 25.8306 119.4663 239° Southwest  Level Estimated
06:37AM 25.7782 119.3680 239° Southwest  Level Estimated
06:38AM 25.7258 119.2697 239° Southwest  Level Estimated
06:39AM 25.6733 119.1715 239° Southwest  Level Estimated
06:40AM 25.6208 119.0734 239° Southwest  Level Estimated
06:41AM 25.5682 118.9754 239° Southwest  Level Estimated
06:42AM 25.5155 118.8775 239° Southwest  Level Estimated
06:43AM 25.4627 118.7796 239° Southwest  Level Estimated
06:44AM 25.4100 118.6819 239° Southwest  Level Estimated
06:45AM 25.3571 118.5842 239° Southwest  Level Estimated
06:46AM 25.3074 118.4927 239° Southwest  Level Estimated
06:47AM 25.2577 118.4012 239° Southwest  Level Estimated
06:48AM 25.2079 118.3097 239° Southwest  Level Estimated
06:49AM 25.1580 118.2184 239° Southwest  Level Estimated
06:50AM 25.1081 118.1271 239° Southwest  Level Estimated
06:51AM 25.0582 118.0359 239° Southwest  Level Estimated
06:52AM 25.0082 117.9448 239° Southwest  Level Estimated
06:53AM 24.9581 117.8537 239° Southwest  Level Estimated
06:54AM 24.9080 117.7627 239° Southwest  Level Estimated
06:55AM 24.8578 117.6718 239° Southwest  Level Estimated
06:56AM 24.8076 117.5810 239° Southwest  Level Estimated
06:57AM 24.7573 117.4902 239° Southwest  Level Estimated
06:58AM 24.7069 117.3996 239° Southwest  Level Estimated
06:59AM 24.6565 117.3090 239° Southwest  Level Estimated
07:00AM 24.6061 117.2184 239° Southwest  Level Estimated
07:01AM 24.5556 117.1279 238° Southwest  Level Estimated
07:02AM 24.5050 117.0376 238° Southwest  Level Estimated
07:03AM 24.4544 116.9472 238° Southwest  Level Estimated
07:04AM 24.4037 116.8570 238° Southwest  Level Estimated
07:05AM 24.3530 116.7668 238° Southwest  Level Estimated
07:06AM 24.3022 116.6767 238° Southwest  Level Estimated
07:07AM 24.2514 116.5867 238° Southwest  Level Estimated
07:08AM 24.2005 116.4967 238° Southwest  Level Estimated
07:09AM 24.1496 116.4068 238° Southwest  Level Estimated
07:10AM 24.0986 116.3170 238° Southwest  Level Estimated
07:11AM 24.0476 116.2273 238° Southwest  Level Estimated
07:12AM 23.9965 116.1376 238° Southwest  Level Estimated
07:13AM 23.9454 116.0480 238° Southwest  Level Estimated
07:14AM 23.8942 115.9585 238° Southwest  Level Estimated
07:15AM 23.8429 115.8690 238° Southwest  Level Estimated
07:16AM 23.7916 115.7796 238° Southwest  Level Estimated
07:17AM 23.7403 115.6903 238° Southwest  Level Estimated
07:18AM 23.6889 115.6011 238° Southwest  Level Estimated
07:19AM 23.6374 115.5119 238° Southwest  Level Estimated
07:20AM 23.5859 115.4228 238° Southwest  Level Estimated
07:21AM 23.5352 115.3351 238° Southwest  Level Estimated
07:22AM 23.4843 115.2475 238° Southwest  Level Estimated
07:23AM 23.4335 115.1599 238° Southwest  Level Estimated
07:24AM 23.3881 115.0819 238° Southwest  Level Estimated
07:25AM 23.3426 115.0039 238° Southwest  Level Estimated
07:26AM 23.2971 114.9260 238° Southwest  Level Estimated
07:27AM 23.2516 114.8481 238° Southwest  Level Estimated
07:28AM 23.2060 114.7703 238° Southwest  Level Estimated
07:29AM 23.1604 114.6925 237° Southwest  Level Estimated
07:30AM 23.1148 114.6148 237° Southwest  Level Estimated
07:30AM 22.8286 115.1873 264° West 411 473 21,800  Level FlightAware ADS-B (VHSK)
07:31AM 23.0691 114.5372 237° Southwest  Level Estimated
07:31AM 22.8181 115.0847 264° West 405 466 20,500  Level FlightAware ADS-B (VHSK)
07:32AM 22.8106 115.0124 264° West 406 467 19,700 -1,140 Descending FlightAware ADS-B (VHSK)
07:33AM 22.7975 114.8862 264° West 401 461 18,600 -1,080 Descending FlightAware ADS-B (VHSK)
07:33AM 22.7923 114.8362 264° West 377 434 17,900 -1,020 Descending FlightAware ADS-B (VHSK)
07:34AM 22.7842 114.7591 264° West 354 407 17,300 -1,140 Descending FlightAware ADS-B (VHSK)
07:35AM 22.7751 114.6671 264° West 346 398 16,400 -1,380 Descending FlightAware ADS-B (VHSK)
07:35AM 22.7697 114.6124 264° West 343 395 15,500 -1,680 Descending FlightAware ADS-B (VHSK)
07:36AM 22.7638 114.5530 264° West 336 387 14,400 -1,500 Descending FlightAware ADS-B (VHSK)
07:37AM 22.7568 114.4849 264° West 326 375 13,500 -1,500 Descending FlightAware ADS-B (VHSK)
07:40AM 22.7259 114.1941 263° West 301 346 9,000 -1,560 Descending FlightAware ADS-B (VHSK)
07:42AM 22.6856 114.0156 256° West  Level Estimated
07:43AM 22.6654 113.9263 256° West  Level Estimated
07:44AM 22.6451 113.8371 256° West  Level Estimated
07:45AM 22.6395 113.8124 256° West  Level Estimated
07:46AM 22.6395 113.8124 North  Level Estimated
07:47AM 22.6395 113.8124 North  Level Estimated
07:48AM 22.6395 113.8124 North  Level Estimated
07:49AM 22.6395 113.8124 North  Level Estimated
07:50AM 22.6395 113.8124 North  Level Estimated
07:51AM 22.6395 113.8124 North  Level Estimated
07:52AM 22.6395 113.8124 North  Level Estimated
07:53AM 22.6395 113.8124 North  Level Estimated
07:54AM 22.6395 113.8124 North  Level Estimated